sensor_id;sensor_type;location;lat;lon;timestamp;P1;durP1;ratioP1;P2;durP2;ratioP2
39188;SDS011;24915;50.858;4.376;2022-09-03T00:01:20;5.53;;;3.42;;
39188;SDS011;24915;50.858;4.376;2022-09-03T00:04:00;12.93;;;2.55;;
39188;SDS011;24915;50.858;4.376;2022-09-03T00:06:35;9.70;;;2.80;;
39188;SDS011;24915;50.858;4.376;2022-09-03T00:14:33;13.68;;;4.90;;
39188;SDS011;24915;50.858;4.376;2022-09-03T00:17:16;6.22;;;3.40;;
39188;SDS011;24915;50.858;4.376;2022-09-03T00:19:52;7.85;;;2.58;;
39188;SDS011;24915;50.858;4.376;2022-09-03T00:22:32;8.55;;;5.40;;
39188;SDS011;24915;50.858;4.376;2022-09-03T00:25:08;4.57;;;3.15;;
39188;SDS011;24915;50.858;4.376;2022-09-03T00:27:38;3.53;;;2.75;;
39188;SDS011;24915;50.858;4.376;2022-09-03T00:30:10;6.32;;;3.55;;
39188;SDS011;24915;50.858;4.376;2022-09-03T00:35:29;6.82;;;3.28;;
39188;SDS011;24915;50.858;4.376;2022-09-03T00:38:01;18.80;;;11.15;;
39188;SDS011;24915;50.858;4.376;2022-09-03T00:59:02;6.95;;;2.47;;
39188;SDS011;24915;50.858;4.376;2022-09-03T01:01:45;5.85;;;3.00;;
39188;SDS011;24915;50.858;4.376;2022-09-03T01:04:21;11.25;;;6.00;;
39188;SDS011;24915;50.858;4.376;2022-09-03T01:09:43;5.13;;;2.45;;
39188;SDS011;24915;50.858;4.376;2022-09-03T01:12:17;7.07;;;2.55;;
39188;SDS011;24915;50.858;4.376;2022-09-03T01:39:22;5.70;;;2.90;;
39188;SDS011;24915;50.858;4.376;2022-09-03T01:41:54;3.83;;;2.78;;
39188;SDS011;24915;50.858;4.376;2022-09-03T01:44:46;5.75;;;2.50;;
39188;SDS011;24915;50.858;4.376;2022-09-03T01:47:21;5.05;;;2.78;;
39188;SDS011;24915;50.858;4.376;2022-09-03T01:52:49;7.63;;;2.70;;
39188;SDS011;24915;50.858;4.376;2022-09-03T01:58:13;6.85;;;2.70;;
39188;SDS011;24915;50.858;4.376;2022-09-03T02:00:45;3.60;;;2.85;;
39188;SDS011;24915;50.858;4.376;2022-09-03T02:03:21;7.82;;;3.20;;
39188;SDS011;24915;50.858;4.376;2022-09-03T02:05:48;6.32;;;3.25;;
39188;SDS011;24915;50.858;4.376;2022-09-03T02:08:17;6.13;;;3.10;;
39188;SDS011;24915;50.858;4.376;2022-09-03T02:13:19;6.70;;;2.88;;
39188;SDS011;24915;50.858;4.376;2022-09-03T02:15:56;10.63;;;3.60;;
39188;SDS011;24915;50.858;4.376;2022-09-03T02:18:34;6.13;;;4.05;;
39188;SDS011;24915;50.858;4.376;2022-09-03T02:21:05;6.50;;;3.47;;
39188;SDS011;24915;50.858;4.376;2022-09-03T02:23:31;5.05;;;3.20;;
39188;SDS011;24915;50.858;4.376;2022-09-03T02:25:58;6.75;;;3.42;;
39188;SDS011;24915;50.858;4.376;2022-09-03T02:28:26;4.68;;;3.60;;
39188;SDS011;24915;50.858;4.376;2022-09-03T02:30:54;4.50;;;3.17;;
39188;SDS011;24915;50.858;4.376;2022-09-03T02:33:20;5.05;;;3.85;;
39188;SDS011;24915;50.858;4.376;2022-09-03T02:35:46;10.32;;;3.90;;
39188;SDS011;24915;50.858;4.376;2022-09-03T02:38:14;5.70;;;3.97;;
39188;SDS011;24915;50.858;4.376;2022-09-03T02:40:42;6.40;;;4.22;;
39188;SDS011;24915;50.858;4.376;2022-09-03T02:43:11;11.85;;;4.20;;
39188;SDS011;24915;50.858;4.376;2022-09-03T02:45:49;12.68;;;5.65;;
39188;SDS011;24915;50.858;4.376;2022-09-03T02:48:18;9.95;;;4.60;;
39188;SDS011;24915;50.858;4.376;2022-09-03T02:50:47;10.35;;;5.68;;
39188;SDS011;24915;50.858;4.376;2022-09-03T02:53:13;10.00;;;6.22;;
39188;SDS011;24915;50.858;4.376;2022-09-03T02:55:39;8.77;;;6.00;;
39188;SDS011;24915;50.858;4.376;2022-09-03T02:58:05;7.10;;;5.97;;
39188;SDS011;24915;50.858;4.376;2022-09-03T03:00:32;9.90;;;6.07;;
39188;SDS011;24915;50.858;4.376;2022-09-03T03:03:00;13.48;;;6.68;;
39188;SDS011;24915;50.858;4.376;2022-09-03T03:05:46;10.52;;;7.43;;
39188;SDS011;24915;50.858;4.376;2022-09-03T03:08:14;7.97;;;6.72;;
39188;SDS011;24915;50.858;4.376;2022-09-03T03:10:41;8.60;;;7.03;;
39188;SDS011;24915;50.858;4.376;2022-09-03T03:13:09;8.73;;;6.47;;
39188;SDS011;24915;50.858;4.376;2022-09-03T03:15:34;12.15;;;6.78;;
39188;SDS011;24915;50.858;4.376;2022-09-03T03:18:00;8.48;;;5.93;;
39188;SDS011;24915;50.858;4.376;2022-09-03T03:20:26;9.50;;;5.97;;
39188;SDS011;24915;50.858;4.376;2022-09-03T03:22:51;10.52;;;5.75;;
39188;SDS011;24915;50.858;4.376;2022-09-03T03:25:17;11.93;;;6.15;;
39188;SDS011;24915;50.858;4.376;2022-09-03T03:27:43;9.13;;;6.20;;
39188;SDS011;24915;50.858;4.376;2022-09-03T03:30:09;9.95;;;5.93;;
39188;SDS011;24915;50.858;4.376;2022-09-03T03:32:36;9.95;;;6.35;;
39188;SDS011;24915;50.858;4.376;2022-09-03T03:35:02;9.20;;;5.90;;
39188;SDS011;24915;50.858;4.376;2022-09-03T03:37:28;5.72;;;5.22;;
39188;SDS011;24915;50.858;4.376;2022-09-03T03:39:55;7.13;;;5.32;;
39188;SDS011;24915;50.858;4.376;2022-09-03T03:42:20;12.10;;;5.40;;
39188;SDS011;24915;50.858;4.376;2022-09-03T03:44:46;6.35;;;4.95;;
39188;SDS011;24915;50.858;4.376;2022-09-03T03:47:11;6.32;;;4.47;;
39188;SDS011;24915;50.858;4.376;2022-09-03T03:49:37;6.18;;;4.38;;
39188;SDS011;24915;50.858;4.376;2022-09-03T03:52:03;6.22;;;3.90;;
39188;SDS011;24915;50.858;4.376;2022-09-03T03:54:29;5.68;;;3.60;;
39188;SDS011;24915;50.858;4.376;2022-09-03T03:56:55;6.85;;;3.65;;
39188;SDS011;24915;50.858;4.376;2022-09-03T03:59:20;3.58;;;3.20;;
39188;SDS011;24915;50.858;4.376;2022-09-03T04:01:46;9.32;;;3.50;;
39188;SDS011;24915;50.858;4.376;2022-09-03T04:04:14;6.22;;;3.60;;
39188;SDS011;24915;50.858;4.376;2022-09-03T04:06:40;6.00;;;3.58;;
39188;SDS011;24915;50.858;4.376;2022-09-03T04:09:05;5.18;;;4.30;;
39188;SDS011;24915;50.858;4.376;2022-09-03T04:11:31;6.88;;;3.38;;
39188;SDS011;24915;50.858;4.376;2022-09-03T04:13:57;3.88;;;3.20;;
39188;SDS011;24915;50.858;4.376;2022-09-03T04:16:26;3.75;;;3.40;;
39188;SDS011;24915;50.858;4.376;2022-09-03T04:18:52;3.92;;;3.58;;
39188;SDS011;24915;50.858;4.376;2022-09-03T04:21:20;3.53;;;2.95;;
39188;SDS011;24915;50.858;4.376;2022-09-03T04:23:51;3.20;;;2.45;;
39188;SDS011;24915;50.858;4.376;2022-09-03T04:26:19;3.00;;;2.60;;
39188;SDS011;24915;50.858;4.376;2022-09-03T04:28:49;3.35;;;3.00;;
39188;SDS011;24915;50.858;4.376;2022-09-03T04:31:16;3.75;;;3.28;;
39188;SDS011;24915;50.858;4.376;2022-09-03T04:33:43;4.93;;;3.08;;
39188;SDS011;24915;50.858;4.376;2022-09-03T04:36:10;5.93;;;3.05;;
39188;SDS011;24915;50.858;4.376;2022-09-03T04:38:38;3.92;;;3.20;;
39188;SDS011;24915;50.858;4.376;2022-09-03T04:41:06;5.00;;;3.20;;
39188;SDS011;24915;50.858;4.376;2022-09-03T04:43:33;4.20;;;3.80;;
39188;SDS011;24915;50.858;4.376;2022-09-03T04:46:00;4.97;;;3.60;;
39188;SDS011;24915;50.858;4.376;2022-09-03T04:48:28;5.40;;;3.22;;
39188;SDS011;24915;50.858;4.376;2022-09-03T04:51:00;5.07;;;3.50;;
39188;SDS011;24915;50.858;4.376;2022-09-03T04:53:34;7.10;;;3.85;;
39188;SDS011;24915;50.858;4.376;2022-09-03T04:56:02;4.88;;;3.72;;
39188;SDS011;24915;50.858;4.376;2022-09-03T04:58:36;3.90;;;3.50;;
39188;SDS011;24915;50.858;4.376;2022-09-03T05:01:35;5.75;;;3.80;;
39188;SDS011;24915;50.858;4.376;2022-09-03T05:03:55;5.30;;;4.20;;
39188;SDS011;24915;50.858;4.376;2022-09-03T05:06:22;4.93;;;3.60;;
39188;SDS011;24915;50.858;4.376;2022-09-03T05:08:49;4.03;;;3.67;;
39188;SDS011;24915;50.858;4.376;2022-09-03T05:11:17;8.68;;;4.40;;
39188;SDS011;24915;50.858;4.376;2022-09-03T05:13:45;5.38;;;3.65;;
39188;SDS011;24915;50.858;4.376;2022-09-03T05:16:13;5.07;;;3.95;;
39188;SDS011;24915;50.858;4.376;2022-09-03T05:18:39;4.10;;;3.70;;
39188;SDS011;24915;50.858;4.376;2022-09-03T05:21:07;4.55;;;3.63;;
39188;SDS011;24915;50.858;4.376;2022-09-03T05:23:35;5.68;;;3.85;;
39188;SDS011;24915;50.858;4.376;2022-09-03T05:26:04;4.75;;;3.70;;
39188;SDS011;24915;50.858;4.376;2022-09-03T05:28:34;6.30;;;4.15;;
39188;SDS011;24915;50.858;4.376;2022-09-03T05:31:02;7.03;;;4.05;;
39188;SDS011;24915;50.858;4.376;2022-09-03T05:33:34;4.85;;;3.85;;
39188;SDS011;24915;50.858;4.376;2022-09-03T05:36:07;4.38;;;4.07;;
39188;SDS011;24915;50.858;4.376;2022-09-03T05:38:34;4.28;;;3.78;;
39188;SDS011;24915;50.858;4.376;2022-09-03T05:41:01;5.00;;;4.60;;
39188;SDS011;24915;50.858;4.376;2022-09-03T05:43:29;4.05;;;3.53;;
39188;SDS011;24915;50.858;4.376;2022-09-03T05:46:03;6.10;;;3.90;;
39188;SDS011;24915;50.858;4.376;2022-09-03T05:48:30;6.95;;;3.95;;
39188;SDS011;24915;50.858;4.376;2022-09-03T05:50:59;3.85;;;3.55;;
39188;SDS011;24915;50.858;4.376;2022-09-03T05:53:31;8.07;;;4.13;;
39188;SDS011;24915;50.858;4.376;2022-09-03T05:55:59;4.18;;;3.78;;
39188;SDS011;24915;50.858;4.376;2022-09-03T05:58:30;5.82;;;4.30;;
39188;SDS011;24915;50.858;4.376;2022-09-03T06:01:08;7.32;;;4.28;;
39188;SDS011;24915;50.858;4.376;2022-09-03T06:03:41;5.82;;;3.53;;
39188;SDS011;24915;50.858;4.376;2022-09-03T06:06:08;4.97;;;3.85;;
39188;SDS011;24915;50.858;4.376;2022-09-03T06:08:35;4.15;;;3.45;;
39188;SDS011;24915;50.858;4.376;2022-09-03T06:11:04;4.70;;;3.65;;
39188;SDS011;24915;50.858;4.376;2022-09-03T06:13:31;4.47;;;3.85;;
39188;SDS011;24915;50.858;4.376;2022-09-03T06:15:58;5.55;;;3.65;;
39188;SDS011;24915;50.858;4.376;2022-09-03T06:18:25;5.85;;;3.55;;
39188;SDS011;24915;50.858;4.376;2022-09-03T06:20:55;7.38;;;3.83;;
39188;SDS011;24915;50.858;4.376;2022-09-03T06:23:23;5.85;;;3.53;;
39188;SDS011;24915;50.858;4.376;2022-09-03T06:28:45;5.30;;;3.83;;
39188;SDS011;24915;50.858;4.376;2022-09-03T06:31:13;5.40;;;3.83;;
39188;SDS011;24915;50.858;4.376;2022-09-03T06:33:40;6.55;;;4.32;;
39188;SDS011;24915;50.858;4.376;2022-09-03T06:36:07;6.22;;;4.40;;
39188;SDS011;24915;50.858;4.376;2022-09-03T06:38:35;13.68;;;7.03;;
39188;SDS011;24915;50.858;4.376;2022-09-03T06:41:05;11.45;;;5.43;;
39188;SDS011;24915;50.858;4.376;2022-09-03T06:43:36;15.32;;;6.97;;
39188;SDS011;24915;50.858;4.376;2022-09-03T06:46:04;64.10;;;22.58;;
39188;SDS011;24915;50.858;4.376;2022-09-03T06:48:33;90.47;;;30.67;;
39188;SDS011;24915;50.858;4.376;2022-09-03T06:51:00;22.77;;;8.55;;
39188;SDS011;24915;50.858;4.376;2022-09-03T06:53:34;28.77;;;11.95;;
39188;SDS011;24915;50.858;4.376;2022-09-03T06:56:04;37.33;;;14.23;;
39188;SDS011;24915;50.858;4.376;2022-09-03T06:58:32;20.40;;;9.05;;
39188;SDS011;24915;50.858;4.376;2022-09-03T07:03:39;7.25;;;3.83;;
39188;SDS011;24915;50.858;4.376;2022-09-03T07:06:10;11.50;;;5.88;;
39188;SDS011;24915;50.858;4.376;2022-09-03T07:08:40;6.57;;;5.07;;
39188;SDS011;24915;50.858;4.376;2022-09-03T07:11:10;6.60;;;4.60;;
39188;SDS011;24915;50.858;4.376;2022-09-03T07:13:38;9.45;;;4.30;;
39188;SDS011;24915;50.858;4.376;2022-09-03T07:16:16;7.80;;;4.00;;
39188;SDS011;24915;50.858;4.376;2022-09-03T07:18:43;8.45;;;4.88;;
39188;SDS011;24915;50.858;4.376;2022-09-03T07:21:11;4.90;;;3.40;;
39188;SDS011;24915;50.858;4.376;2022-09-03T07:23:38;4.57;;;2.97;;
39188;SDS011;24915;50.858;4.376;2022-09-03T07:26:05;5.50;;;4.63;;
39188;SDS011;24915;50.858;4.376;2022-09-03T07:28:34;4.15;;;3.75;;
39188;SDS011;24915;50.858;4.376;2022-09-03T07:31:04;6.63;;;3.65;;
39188;SDS011;24915;50.858;4.376;2022-09-03T07:33:32;7.38;;;3.83;;
39188;SDS011;24915;50.858;4.376;2022-09-03T07:36:09;2.90;;;2.70;;
39188;SDS011;24915;50.858;4.376;2022-09-03T07:38:38;6.80;;;3.17;;
39188;SDS011;24915;50.858;4.376;2022-09-03T07:41:06;7.97;;;3.10;;
39188;SDS011;24915;50.858;4.376;2022-09-03T07:43:34;7.88;;;3.45;;
39188;SDS011;24915;50.858;4.376;2022-09-03T07:46:04;6.18;;;2.85;;
39188;SDS011;24915;50.858;4.376;2022-09-03T07:48:41;4.78;;;3.10;;
39188;SDS011;24915;50.858;4.376;2022-09-03T07:51:08;4.35;;;2.80;;
39188;SDS011;24915;50.858;4.376;2022-09-03T07:53:34;5.55;;;3.55;;
39188;SDS011;24915;50.858;4.376;2022-09-03T07:56:01;5.32;;;3.15;;
39188;SDS011;24915;50.858;4.376;2022-09-03T07:58:31;4.43;;;3.10;;
39188;SDS011;24915;50.858;4.376;2022-09-03T08:01:02;4.50;;;3.10;;
39188;SDS011;24915;50.858;4.376;2022-09-03T08:03:32;4.88;;;3.38;;
39188;SDS011;24915;50.858;4.376;2022-09-03T08:06:00;7.22;;;3.53;;
39188;SDS011;24915;50.858;4.376;2022-09-03T08:08:26;3.42;;;3.13;;
39188;SDS011;24915;50.858;4.376;2022-09-03T08:10:52;7.95;;;5.93;;
39188;SDS011;24915;50.858;4.376;2022-09-03T08:13:17;14.23;;;8.57;;
39188;SDS011;24915;50.858;4.376;2022-09-03T08:15:52;34.15;;;18.58;;
39188;SDS011;24915;50.858;4.376;2022-09-03T08:18:18;24.40;;;14.80;;
39188;SDS011;24915;50.858;4.376;2022-09-03T08:20:44;21.88;;;11.73;;
39188;SDS011;24915;50.858;4.376;2022-09-03T08:23:09;7.85;;;4.05;;
39188;SDS011;24915;50.858;4.376;2022-09-03T08:25:35;10.35;;;3.67;;
39188;SDS011;24915;50.858;4.376;2022-09-03T08:28:01;4.70;;;3.63;;
39188;SDS011;24915;50.858;4.376;2022-09-03T08:30:26;8.07;;;3.30;;
39188;SDS011;24915;50.858;4.376;2022-09-03T08:32:52;6.45;;;3.20;;
39188;SDS011;24915;50.858;4.376;2022-09-03T08:35:19;6.38;;;3.58;;
39188;SDS011;24915;50.858;4.376;2022-09-03T08:37:45;17.42;;;9.48;;
39188;SDS011;24915;50.858;4.376;2022-09-03T08:40:13;5.60;;;3.78;;
39188;SDS011;24915;50.858;4.376;2022-09-03T08:45:42;14.25;;;6.10;;
39188;SDS011;24915;50.858;4.376;2022-09-03T08:48:11;15.73;;;6.95;;
39188;SDS011;24915;50.858;4.376;2022-09-03T08:50:43;20.60;;;14.38;;
39188;SDS011;24915;50.858;4.376;2022-09-03T08:58:32;19.45;;;9.88;;
39188;SDS011;24915;50.858;4.376;2022-09-03T09:03:42;9.77;;;4.47;;
39188;SDS011;24915;50.858;4.376;2022-09-03T09:13:55;7.97;;;4.70;;
39188;SDS011;24915;50.858;4.376;2022-09-03T09:16:30;4.88;;;4.35;;
39188;SDS011;24915;50.858;4.376;2022-09-03T09:19:19;8.88;;;4.53;;
39188;SDS011;24915;50.858;4.376;2022-09-03T09:22:10;7.55;;;4.88;;
39188;SDS011;24915;50.858;4.376;2022-09-03T09:24:48;7.22;;;4.32;;
39188;SDS011;24915;50.858;4.376;2022-09-03T09:27:18;10.85;;;4.55;;
39188;SDS011;24915;50.858;4.376;2022-09-03T09:29:45;7.75;;;4.63;;
39188;SDS011;24915;50.858;4.376;2022-09-03T09:32:13;7.85;;;4.53;;
39188;SDS011;24915;50.858;4.376;2022-09-03T09:34:41;9.13;;;4.35;;
39188;SDS011;24915;50.858;4.376;2022-09-03T09:37:08;8.30;;;4.43;;
39188;SDS011;24915;50.858;4.376;2022-09-03T09:39:37;10.30;;;4.25;;
39188;SDS011;24915;50.858;4.376;2022-09-03T09:44:37;5.72;;;4.53;;
39188;SDS011;24915;50.858;4.376;2022-09-03T09:47:06;8.85;;;4.93;;
39188;SDS011;24915;50.858;4.376;2022-09-03T09:49:34;10.60;;;4.90;;
39188;SDS011;24915;50.858;4.376;2022-09-03T09:52:15;6.13;;;5.40;;
39188;SDS011;24915;50.858;4.376;2022-09-03T09:54:42;14.65;;;8.10;;
39188;SDS011;24915;50.858;4.376;2022-09-03T09:57:14;12.55;;;5.97;;
39188;SDS011;24915;50.858;4.376;2022-09-03T09:59:42;13.18;;;7.70;;
39188;SDS011;24915;50.858;4.376;2022-09-03T10:02:13;11.40;;;6.60;;
39188;SDS011;24915;50.858;4.376;2022-09-03T10:04:40;31.30;;;12.88;;
39188;SDS011;24915;50.858;4.376;2022-09-03T10:07:23;6.05;;;4.68;;
39188;SDS011;24915;50.858;4.376;2022-09-03T10:09:58;9.38;;;4.47;;
39188;SDS011;24915;50.858;4.376;2022-09-03T10:12:56;9.65;;;4.10;;
39188;SDS011;24915;50.858;4.376;2022-09-03T10:15:36;11.35;;;4.93;;
39188;SDS011;24915;50.858;4.376;2022-09-03T10:26:24;5.43;;;4.40;;
39188;SDS011;24915;50.858;4.376;2022-09-03T10:28:58;10.55;;;4.97;;
39188;SDS011;24915;50.858;4.376;2022-09-03T10:34:17;7.53;;;5.38;;
39188;SDS011;24915;50.858;4.376;2022-09-03T10:36:55;10.25;;;4.88;;
39188;SDS011;24915;50.858;4.376;2022-09-03T10:39:52;5.05;;;4.60;;
39188;SDS011;24915;50.858;4.376;2022-09-03T10:42:36;5.15;;;4.53;;
39188;SDS011;24915;50.858;4.376;2022-09-03T10:45:39;10.82;;;4.72;;
39188;SDS011;24915;50.858;4.376;2022-09-03T10:50:52;9.35;;;3.88;;
39188;SDS011;24915;50.858;4.376;2022-09-03T10:58:40;9.18;;;6.00;;
39188;SDS011;24915;50.858;4.376;2022-09-03T11:07:16;8.40;;;5.22;;
39188;SDS011;24915;50.858;4.376;2022-09-03T11:09:47;7.88;;;5.50;;
39188;SDS011;24915;50.858;4.376;2022-09-03T11:14:52;6.78;;;4.53;;
39188;SDS011;24915;50.858;4.376;2022-09-03T11:17:48;7.88;;;5.18;;
39188;SDS011;24915;50.858;4.376;2022-09-03T11:20:21;11.50;;;5.45;;
39188;SDS011;24915;50.858;4.376;2022-09-03T11:22:50;9.70;;;4.80;;
39188;SDS011;24915;50.858;4.376;2022-09-03T11:25:19;7.68;;;4.70;;
39188;SDS011;24915;50.858;4.376;2022-09-03T11:30:22;8.57;;;4.10;;
39188;SDS011;24915;50.858;4.376;2022-09-03T11:32:59;8.43;;;4.38;;
39188;SDS011;24915;50.858;4.376;2022-09-03T11:40:31;11.98;;;4.50;;
39188;SDS011;24915;50.858;4.376;2022-09-03T11:43:05;9.93;;;4.35;;
39188;SDS011;24915;50.858;4.376;2022-09-03T11:45:35;8.00;;;4.57;;
39188;SDS011;24915;50.858;4.376;2022-09-03T11:48:15;6.63;;;4.88;;
39188;SDS011;24915;50.858;4.376;2022-09-03T11:51:01;7.47;;;4.78;;
39188;SDS011;24915;50.858;4.376;2022-09-03T11:53:35;10.25;;;4.80;;
39188;SDS011;24915;50.858;4.376;2022-09-03T11:56:11;10.00;;;5.15;;
39188;SDS011;24915;50.858;4.376;2022-09-03T11:58:42;18.75;;;6.32;;
39188;SDS011;24915;50.858;4.376;2022-09-03T12:01:09;9.27;;;5.75;;
39188;SDS011;24915;50.858;4.376;2022-09-03T12:03:41;7.03;;;5.32;;
39188;SDS011;24915;50.858;4.376;2022-09-03T12:09:22;11.40;;;6.20;;
39188;SDS011;24915;50.858;4.376;2022-09-03T12:18:08;6.88;;;6.05;;
39188;SDS011;24915;50.858;4.376;2022-09-03T12:20:58;7.95;;;5.00;;
39188;SDS011;24915;50.858;4.376;2022-09-03T12:25:54;6.32;;;5.63;;
39188;SDS011;24915;50.858;4.376;2022-09-03T12:28:22;6.95;;;4.53;;
39188;SDS011;24915;50.858;4.376;2022-09-03T12:30:51;7.25;;;4.90;;
39188;SDS011;24915;50.858;4.376;2022-09-03T12:33:21;5.68;;;5.15;;
39188;SDS011;24915;50.858;4.376;2022-09-03T12:35:56;6.00;;;4.30;;
39188;SDS011;24915;50.858;4.376;2022-09-03T12:38:24;7.80;;;4.15;;
39188;SDS011;24915;50.858;4.376;2022-09-03T12:40:50;8.70;;;5.18;;
39188;SDS011;24915;50.858;4.376;2022-09-03T12:43:16;7.18;;;4.20;;
39188;SDS011;24915;50.858;4.376;2022-09-03T12:45:43;5.82;;;4.20;;
39188;SDS011;24915;50.858;4.376;2022-09-03T12:48:17;4.82;;;3.40;;
39188;SDS011;24915;50.858;4.376;2022-09-03T12:50:44;4.55;;;3.35;;
39188;SDS011;24915;50.858;4.376;2022-09-03T12:53:21;7.65;;;3.65;;
39188;SDS011;24915;50.858;4.376;2022-09-03T12:55:56;3.42;;;3.13;;
39188;SDS011;24915;50.858;4.376;2022-09-03T12:58:46;4.68;;;3.60;;
39188;SDS011;24915;50.858;4.376;2022-09-03T13:01:43;3.90;;;3.53;;
39188;SDS011;24915;50.858;4.376;2022-09-03T13:04:33;8.07;;;3.70;;
39188;SDS011;24915;50.858;4.376;2022-09-03T13:07:02;4.82;;;3.33;;
39188;SDS011;24915;50.858;4.376;2022-09-03T13:09:38;6.05;;;3.47;;
39188;SDS011;24915;50.858;4.376;2022-09-03T13:12:06;3.45;;;3.15;;
39188;SDS011;24915;50.858;4.376;2022-09-03T13:14:45;4.28;;;3.10;;
39188;SDS011;24915;50.858;4.376;2022-09-03T13:19:50;6.60;;;3.80;;
39188;SDS011;24915;50.858;4.376;2022-09-03T13:25:34;5.82;;;4.90;;
39188;SDS011;24915;50.858;4.376;2022-09-03T13:30:56;5.80;;;4.40;;
39188;SDS011;24915;50.858;4.376;2022-09-03T13:33:30;4.80;;;4.25;;
39188;SDS011;24915;50.858;4.376;2022-09-03T13:47:01;11.68;;;3.92;;
39188;SDS011;24915;50.858;4.376;2022-09-03T13:52:38;2.85;;;2.65;;
39188;SDS011;24915;50.858;4.376;2022-09-03T14:06:08;3.92;;;2.53;;
39188;SDS011;24915;50.858;4.376;2022-09-03T14:11:34;5.03;;;2.70;;
39188;SDS011;24915;50.858;4.376;2022-09-03T14:14:13;3.42;;;2.20;;
39188;SDS011;24915;50.858;4.376;2022-09-03T14:25:27;5.60;;;2.20;;
39188;SDS011;24915;50.858;4.376;2022-09-03T14:27:53;4.15;;;1.83;;
39188;SDS011;24915;50.858;4.376;2022-09-03T14:33:14;2.42;;;2.22;;
39188;SDS011;24915;50.858;4.376;2022-09-03T14:36:08;3.30;;;2.42;;
39188;SDS011;24915;50.858;4.376;2022-09-03T14:38:49;4.38;;;2.53;;
39188;SDS011;24915;50.858;4.376;2022-09-03T14:44:18;2.53;;;2.30;;
39188;SDS011;24915;50.858;4.376;2022-09-03T14:55:13;5.00;;;3.30;;
39188;SDS011;24915;50.858;4.376;2022-09-03T15:00:31;6.45;;;4.32;;
39188;SDS011;24915;50.858;4.376;2022-09-03T15:03:08;4.55;;;3.60;;
39188;SDS011;24915;50.858;4.376;2022-09-03T15:10:59;7.45;;;4.10;;
39188;SDS011;24915;50.858;4.376;2022-09-03T15:16:19;3.40;;;3.08;;
39188;SDS011;24915;50.858;4.376;2022-09-03T15:24:23;12.55;;;4.60;;
39188;SDS011;24915;50.858;4.376;2022-09-03T15:29:48;14.20;;;5.43;;
39188;SDS011;24915;50.858;4.376;2022-09-03T15:35:04;13.50;;;3.95;;
39188;SDS011;24915;50.858;4.376;2022-09-03T15:37:45;9.10;;;4.20;;
39188;SDS011;24915;50.858;4.376;2022-09-03T15:40:21;5.10;;;4.63;;
39188;SDS011;24915;50.858;4.376;2022-09-03T15:45:56;6.32;;;4.30;;
39188;SDS011;24915;50.858;4.376;2022-09-03T15:51:16;4.63;;;4.05;;
39188;SDS011;24915;50.858;4.376;2022-09-03T16:02:29;6.75;;;4.30;;
39188;SDS011;24915;50.858;4.376;2022-09-03T16:05:06;6.93;;;4.18;;
39188;SDS011;24915;50.858;4.376;2022-09-03T16:11:08;4.55;;;3.95;;
39188;SDS011;24915;50.858;4.376;2022-09-03T16:13:35;4.15;;;3.75;;
39188;SDS011;24915;50.858;4.376;2022-09-03T16:19:22;5.47;;;4.10;;
39188;SDS011;24915;50.858;4.376;2022-09-03T16:21:58;6.53;;;4.40;;
39188;SDS011;24915;50.858;4.376;2022-09-03T16:27:14;4.43;;;4.05;;
39188;SDS011;24915;50.858;4.376;2022-09-03T16:29:59;5.22;;;4.30;;
39188;SDS011;24915;50.858;4.376;2022-09-03T16:45:51;6.85;;;5.22;;
39188;SDS011;24915;50.858;4.376;2022-09-03T17:20:59;4.72;;;3.53;;
39188;SDS011;24915;50.858;4.376;2022-09-03T17:40:02;5.00;;;3.80;;
39188;SDS011;24915;50.858;4.376;2022-09-03T17:45:14;4.88;;;4.35;;
39188;SDS011;24915;50.858;4.376;2022-09-03T17:50:24;6.10;;;3.47;;
39188;SDS011;24915;50.858;4.376;2022-09-03T17:52:56;4.40;;;4.00;;
39188;SDS011;24915;50.858;4.376;2022-09-03T17:58:04;7.00;;;4.00;;
39188;SDS011;24915;50.858;4.376;2022-09-03T18:05:57;8.30;;;4.20;;
39188;SDS011;24915;50.858;4.376;2022-09-03T18:08:42;5.15;;;4.65;;
39188;SDS011;24915;50.858;4.376;2022-09-03T18:11:21;8.15;;;5.07;;
39188;SDS011;24915;50.858;4.376;2022-09-03T18:14:19;10.80;;;4.97;;
39188;SDS011;24915;50.858;4.376;2022-09-03T18:22:46;13.30;;;5.85;;
39188;SDS011;24915;50.858;4.376;2022-09-03T18:25:32;8.15;;;5.53;;
39188;SDS011;24915;50.858;4.376;2022-09-03T18:28:18;10.07;;;6.03;;
39188;SDS011;24915;50.858;4.376;2022-09-03T18:31:39;7.25;;;5.38;;
39188;SDS011;24915;50.858;4.376;2022-09-03T18:34:31;6.43;;;5.50;;
39188;SDS011;24915;50.858;4.376;2022-09-03T18:37:19;6.13;;;5.38;;
39188;SDS011;24915;50.858;4.376;2022-09-03T18:40:06;7.72;;;5.28;;
39188;SDS011;24915;50.858;4.376;2022-09-03T18:43:03;5.75;;;4.95;;
39188;SDS011;24915;50.858;4.376;2022-09-03T18:49:44;7.35;;;3.90;;
39188;SDS011;24915;50.858;4.376;2022-09-03T18:52:54;4.32;;;3.75;;
39188;SDS011;24915;50.858;4.376;2022-09-03T18:58:41;3.38;;;3.00;;
39188;SDS011;24915;50.858;4.376;2022-09-03T19:01:40;5.20;;;3.38;;
39188;SDS011;24915;50.858;4.376;2022-09-03T19:07:35;3.00;;;2.80;;
39188;SDS011;24915;50.858;4.376;2022-09-03T19:10:27;2.83;;;2.60;;
39188;SDS011;24915;50.858;4.376;2022-09-03T19:13:36;3.08;;;2.78;;
39188;SDS011;24915;50.858;4.376;2022-09-03T19:16:59;5.10;;;3.05;;
39188;SDS011;24915;50.858;4.376;2022-09-03T19:19:48;5.47;;;3.10;;
39188;SDS011;24915;50.858;4.376;2022-09-03T19:22:55;5.75;;;3.13;;
39188;SDS011;24915;50.858;4.376;2022-09-03T19:28:24;4.28;;;3.50;;
39188;SDS011;24915;50.858;4.376;2022-09-03T19:34:02;6.63;;;3.42;;
39188;SDS011;24915;50.858;4.376;2022-09-03T19:45:58;8.82;;;4.03;;
39188;SDS011;24915;50.858;4.376;2022-09-03T19:55:48;9.20;;;7.13;;
39188;SDS011;24915;50.858;4.376;2022-09-03T19:58:40;9.70;;;6.97;;
39188;SDS011;24915;50.858;4.376;2022-09-03T20:01:35;10.48;;;7.20;;
39188;SDS011;24915;50.858;4.376;2022-09-03T20:04:22;10.00;;;6.88;;
39188;SDS011;24915;50.858;4.376;2022-09-03T20:07:15;21.67;;;17.02;;
39188;SDS011;24915;50.858;4.376;2022-09-03T20:10:02;9.27;;;7.93;;
39188;SDS011;24915;50.858;4.376;2022-09-03T20:21:12;16.30;;;11.88;;
39188;SDS011;24915;50.858;4.376;2022-09-03T20:29:26;20.60;;;12.15;;
39188;SDS011;24915;50.858;4.376;2022-09-03T20:32:43;16.98;;;11.10;;
39188;SDS011;24915;50.858;4.376;2022-09-03T20:38:19;15.93;;;9.40;;
39188;SDS011;24915;50.858;4.376;2022-09-03T20:44:48;9.52;;;7.88;;
39188;SDS011;24915;50.858;4.376;2022-09-03T20:46:52;11.32;;;7.55;;
39188;SDS011;24915;50.858;4.376;2022-09-03T20:49:46;10.57;;;7.70;;
39188;SDS011;24915;50.858;4.376;2022-09-03T20:52:27;8.75;;;7.05;;
39188;SDS011;24915;50.858;4.376;2022-09-03T21:00:09;10.10;;;7.28;;
39188;SDS011;24915;50.858;4.376;2022-09-03T21:03:39;9.45;;;7.15;;
39188;SDS011;24915;50.858;4.376;2022-09-03T21:11:47;9.60;;;6.57;;
39188;SDS011;24915;50.858;4.376;2022-09-03T21:17:21;7.63;;;6.65;;
39188;SDS011;24915;50.858;4.376;2022-09-03T21:22:48;9.73;;;6.88;;
39188;SDS011;24915;50.858;4.376;2022-09-03T21:25:37;9.10;;;5.88;;
39188;SDS011;24915;50.858;4.376;2022-09-03T21:28:38;8.18;;;5.45;;
39188;SDS011;24915;50.858;4.376;2022-09-03T21:31:04;11.77;;;5.72;;
39188;SDS011;24915;50.858;4.376;2022-09-03T21:33:37;8.10;;;6.70;;
39188;SDS011;24915;50.858;4.376;2022-09-03T21:36:19;13.95;;;6.50;;
39188;SDS011;24915;50.858;4.376;2022-09-03T21:39:00;8.57;;;5.30;;
39188;SDS011;24915;50.858;4.376;2022-09-03T21:42:50;6.50;;;4.75;;
39188;SDS011;24915;50.858;4.376;2022-09-03T21:47:39;6.72;;;4.20;;
39188;SDS011;24915;50.858;4.376;2022-09-03T21:50:21;4.57;;;4.10;;
39188;SDS011;24915;50.858;4.376;2022-09-03T21:53:02;4.85;;;4.40;;
39188;SDS011;24915;50.858;4.376;2022-09-03T21:58:45;9.88;;;4.20;;
39188;SDS011;24915;50.858;4.376;2022-09-03T22:04:09;6.15;;;4.30;;
39188;SDS011;24915;50.858;4.376;2022-09-03T22:10:00;5.60;;;4.47;;